Kirkwood, CA

5:39 AM PDT on August 20, 2014 (GMT -0700)
Lake Tahoe | Change Station
CLOSE
Current Station
Airport
Location: South Lake Tahoe,
Elevation: 6263 ft
Nearby Weather Stations

Elev 6263 ft 38.90 °N, 120.00 °W | Updated 46 minutes ago

Mostly Cloudy
Mostly Cloudy
47 °F
Feels Like 47 °F
N
0
Wind Variable Wind from North

Today
High -- | Low -- °F
--% Chance of Precip.
Yesterday
High -- | Low -- °F
Precip. -- in
6:18 AM 7:47 PM
Waning Crescent, 22% visible
Pressure 29.91 in
Visibility 10.0 miles
Clouds Mostly Cloudy 11000 ft
Dew Point 38 °F
Humidity 71%
Rainfall 0.00 in
Snow Depth 0 in , 0 in , 1 in
UV 0 out of 12
Pollen 6.20 out of 12
Ozone Good
Flu Activity Not available.
METAR KTVL 201153Z AUTO 00000KT 10SM BKN110 08/03 A3008 RMK AO2 SLP128 T00830033 10139 20083 50002

More Conditions Fewer Conditions

Pressure 29.91 in
Visibility 10.0 miles
Clouds Mostly Cloudy 11000 ft
Dew Point 38 °F
Humidity 71%
Rainfall 0.00 in
Snow Depth 0 in , 0 in , 1 in
UV 0 out of 12
Pollen 6.20 out of 12
Ozone Good
Flu Activity Not available.
METAR KTVL 201153Z AUTO 00000KT 10SM BKN110 08/03 A3008 RMK AO2 SLP128 T00830033 10139 20083 50002

More Conditions Fewer Conditions

10-Day Weather Forecast

Almanac

Astronomy

Aug. 20, 2014 Rise Set
Actual Time 6:18 AM PDT 7:47 PM PDT
Civil Twilight 5:50 AM PDT 8:15 PM PDT
Nautical Twilight 5:17 AM PDT 8:49 PM PDT
Astronomical Twilight 4:41 AM PDT 9:24 PM PDT
Moon 2:04 AM PDT 4:35 PM PDT
Length of Visible Light 14h 24m
Length of Day
13h 28m
Tomorrow will be 2m 17s shorter.
Waning Crescent, 22% of the Moon is Illuminated
Today
Waning Crescent
Aug 25
New
Sep 2
First Quarter
Sep 8
Full
Sep 15
Last Quarter

Today's Extremes

State Highs State Lows

Community

WunderPhotos

Upload Photos

1,745,618 photos uploaded!

Nearby

Air Quality

  Air Quality AQ Index Pollutant
Yesterday Moderate
OZONE
Current Good
OZONE
Wednesday Moderate
OZONE
Thursday Moderate
OZONE
Friday Moderate
OZONE
Saturday Moderate
OZONE

Snow Depth

Station Depth Elevation
Forestdale Creek 0 in 8029 ft
Blue Lakes 0 in 8000 ft
Echo Peak 1 in 7800 ft
Hagan's Meadow 0 in 8000 ft
Fallen Leaf 0 in 6300 ft

Earthquake Activity

City Distance Mag. Time & Date
Mariposa, California 89 miles 2.5 4:54 AM PDT
2014-08-14
Mariposa, California 91 miles 2.7 3:31 AM PDT
2014-08-14
Minimum magnitude displayed is 2.5.

Coastal Water Temperatures

Place Temperature
No Stations Reporting

Nearby Weather Stations